sensor_id;sensor_type;location;lat;lon;timestamp;P1;durP1;ratioP1;P2;durP2;ratioP2
17207;SDS011;8720;48.488;9.202;2023-08-06T00:01:11;3.00;;;2.67;;
17207;SDS011;8720;48.488;9.202;2023-08-06T00:03:38;2.80;;;2.60;;
17207;SDS011;8720;48.488;9.202;2023-08-06T00:06:06;3.20;;;2.90;;
17207;SDS011;8720;48.488;9.202;2023-08-06T00:08:34;3.37;;;2.97;;
17207;SDS011;8720;48.488;9.202;2023-08-06T00:11:01;3.40;;;3.10;;
17207;SDS011;8720;48.488;9.202;2023-08-06T00:13:29;3.87;;;3.57;;
17207;SDS011;8720;48.488;9.202;2023-08-06T00:16:03;3.30;;;3.00;;
17207;SDS011;8720;48.488;9.202;2023-08-06T00:18:36;3.70;;;3.07;;
17207;SDS011;8720;48.488;9.202;2023-08-06T00:21:04;3.40;;;3.10;;
17207;SDS011;8720;48.488;9.202;2023-08-06T00:23:31;3.30;;;2.90;;
17207;SDS011;8720;48.488;9.202;2023-08-06T00:26:00;3.53;;;3.23;;
17207;SDS011;8720;48.488;9.202;2023-08-06T00:28:27;2.77;;;2.57;;
17207;SDS011;8720;48.488;9.202;2023-08-06T00:30:54;3.10;;;2.80;;
17207;SDS011;8720;48.488;9.202;2023-08-06T00:33:23;3.50;;;3.20;;
17207;SDS011;8720;48.488;9.202;2023-08-06T00:35:51;2.87;;;2.67;;
17207;SDS011;8720;48.488;9.202;2023-08-06T00:38:18;2.93;;;2.73;;
17207;SDS011;8720;48.488;9.202;2023-08-06T00:40:45;3.40;;;3.00;;
17207;SDS011;8720;48.488;9.202;2023-08-06T00:43:14;3.43;;;2.80;;
17207;SDS011;8720;48.488;9.202;2023-08-06T00:45:41;3.43;;;3.13;;
17207;SDS011;8720;48.488;9.202;2023-08-06T00:48:09;3.37;;;3.07;;
17207;SDS011;8720;48.488;9.202;2023-08-06T00:50:37;3.57;;;3.00;;
17207;SDS011;8720;48.488;9.202;2023-08-06T00:53:04;3.20;;;2.30;;
17207;SDS011;8720;48.488;9.202;2023-08-06T00:55:32;3.03;;;2.60;;
17207;SDS011;8720;48.488;9.202;2023-08-06T00:58:00;2.70;;;2.40;;
17207;SDS011;8720;48.488;9.202;2023-08-06T01:00:30;2.83;;;2.57;;
17207;SDS011;8720;48.488;9.202;2023-08-06T01:02:57;2.87;;;2.30;;
17207;SDS011;8720;48.488;9.202;2023-08-06T01:05:25;2.87;;;2.53;;
17207;SDS011;8720;48.488;9.202;2023-08-06T01:07:56;2.73;;;2.30;;
17207;SDS011;8720;48.488;9.202;2023-08-06T01:10:47;2.40;;;2.10;;
17207;SDS011;8720;48.488;9.202;2023-08-06T01:13:30;2.90;;;2.50;;
17207;SDS011;8720;48.488;9.202;2023-08-06T01:16:09;4.17;;;2.27;;
17207;SDS011;8720;48.488;9.202;2023-08-06T01:18:38;3.47;;;2.50;;
17207;SDS011;8720;48.488;9.202;2023-08-06T01:21:08;2.47;;;1.60;;
17207;SDS011;8720;48.488;9.202;2023-08-06T01:23:35;2.30;;;2.00;;
17207;SDS011;8720;48.488;9.202;2023-08-06T01:26:08;3.70;;;2.17;;
17207;SDS011;8720;48.488;9.202;2023-08-06T01:28:47;3.63;;;2.10;;
17207;SDS011;8720;48.488;9.202;2023-08-06T01:31:24;2.60;;;1.87;;
17207;SDS011;8720;48.488;9.202;2023-08-06T01:33:58;3.03;;;2.20;;
17207;SDS011;8720;48.488;9.202;2023-08-06T01:36:29;2.93;;;2.10;;
17207;SDS011;8720;48.488;9.202;2023-08-06T01:38:59;4.03;;;2.13;;
17207;SDS011;8720;48.488;9.202;2023-08-06T01:41:26;3.57;;;2.40;;
17207;SDS011;8720;48.488;9.202;2023-08-06T01:43:53;3.17;;;2.33;;
17207;SDS011;8720;48.488;9.202;2023-08-06T01:46:21;4.30;;;2.20;;
17207;SDS011;8720;48.488;9.202;2023-08-06T01:48:49;3.17;;;2.20;;
17207;SDS011;8720;48.488;9.202;2023-08-06T01:51:16;2.73;;;2.10;;
17207;SDS011;8720;48.488;9.202;2023-08-06T01:53:45;3.60;;;2.40;;
17207;SDS011;8720;48.488;9.202;2023-08-06T01:56:12;3.63;;;2.40;;
17207;SDS011;8720;48.488;9.202;2023-08-06T01:58:39;7.50;;;2.67;;
17207;SDS011;8720;48.488;9.202;2023-08-06T02:03:43;2.80;;;2.00;;
17207;SDS011;8720;48.488;9.202;2023-08-06T02:06:11;3.10;;;1.87;;
17207;SDS011;8720;48.488;9.202;2023-08-06T02:08:38;2.90;;;2.17;;
17207;SDS011;8720;48.488;9.202;2023-08-06T02:11:07;3.70;;;2.30;;
17207;SDS011;8720;48.488;9.202;2023-08-06T02:13:34;2.43;;;2.10;;
17207;SDS011;8720;48.488;9.202;2023-08-06T02:16:02;3.17;;;2.00;;
17207;SDS011;8720;48.488;9.202;2023-08-06T02:18:29;3.20;;;2.10;;
17207;SDS011;8720;48.488;9.202;2023-08-06T02:20:57;3.80;;;2.50;;
17207;SDS011;8720;48.488;9.202;2023-08-06T02:23:25;3.10;;;2.30;;
17207;SDS011;8720;48.488;9.202;2023-08-06T02:25:59;3.27;;;2.20;;
17207;SDS011;8720;48.488;9.202;2023-08-06T02:28:29;2.80;;;2.20;;
17207;SDS011;8720;48.488;9.202;2023-08-06T02:30:58;4.17;;;2.20;;
17207;SDS011;8720;48.488;9.202;2023-08-06T02:33:27;3.53;;;2.03;;
17207;SDS011;8720;48.488;9.202;2023-08-06T02:36:01;4.00;;;2.00;;
17207;SDS011;8720;48.488;9.202;2023-08-06T02:38:30;2.90;;;2.03;;
17207;SDS011;8720;48.488;9.202;2023-08-06T02:40:58;1.93;;;1.60;;
17207;SDS011;8720;48.488;9.202;2023-08-06T02:43:25;3.03;;;2.03;;
17207;SDS011;8720;48.488;9.202;2023-08-06T02:45:58;3.13;;;2.37;;
17207;SDS011;8720;48.488;9.202;2023-08-06T02:48:26;2.47;;;2.17;;
17207;SDS011;8720;48.488;9.202;2023-08-06T02:50:56;2.60;;;2.17;;
17207;SDS011;8720;48.488;9.202;2023-08-06T02:53:26;2.77;;;1.70;;
17207;SDS011;8720;48.488;9.202;2023-08-06T02:55:54;2.00;;;1.80;;
17207;SDS011;8720;48.488;9.202;2023-08-06T02:58:28;3.27;;;1.90;;
17207;SDS011;8720;48.488;9.202;2023-08-06T03:01:19;3.73;;;1.90;;
17207;SDS011;8720;48.488;9.202;2023-08-06T03:03:54;3.40;;;1.63;;
17207;SDS011;8720;48.488;9.202;2023-08-06T03:06:28;2.70;;;2.00;;
17207;SDS011;8720;48.488;9.202;2023-08-06T03:08:57;1.67;;;1.40;;
17207;SDS011;8720;48.488;9.202;2023-08-06T03:11:25;3.17;;;1.60;;
17207;SDS011;8720;48.488;9.202;2023-08-06T03:14:01;2.50;;;1.77;;
17207;SDS011;8720;48.488;9.202;2023-08-06T03:16:31;2.97;;;1.80;;
17207;SDS011;8720;48.488;9.202;2023-08-06T03:18:59;3.43;;;1.70;;
17207;SDS011;8720;48.488;9.202;2023-08-06T03:21:27;4.30;;;1.60;;
17207;SDS011;8720;48.488;9.202;2023-08-06T03:23:55;3.37;;;1.73;;
17207;SDS011;8720;48.488;9.202;2023-08-06T03:26:26;2.70;;;1.90;;
17207;SDS011;8720;48.488;9.202;2023-08-06T03:28:54;1.77;;;1.30;;
17207;SDS011;8720;48.488;9.202;2023-08-06T03:31:21;4.07;;;1.33;;
17207;SDS011;8720;48.488;9.202;2023-08-06T03:33:50;2.13;;;1.80;;
17207;SDS011;8720;48.488;9.202;2023-08-06T03:36:22;2.10;;;1.53;;
17207;SDS011;8720;48.488;9.202;2023-08-06T03:38:50;2.07;;;1.40;;
17207;SDS011;8720;48.488;9.202;2023-08-06T03:41:18;2.70;;;1.50;;
17207;SDS011;8720;48.488;9.202;2023-08-06T03:43:46;3.27;;;1.80;;
17207;SDS011;8720;48.488;9.202;2023-08-06T03:46:19;2.60;;;1.80;;
17207;SDS011;8720;48.488;9.202;2023-08-06T03:48:47;3.33;;;2.07;;
17207;SDS011;8720;48.488;9.202;2023-08-06T03:51:15;3.10;;;2.30;;
17207;SDS011;8720;48.488;9.202;2023-08-06T03:53:45;4.63;;;1.50;;
17207;SDS011;8720;48.488;9.202;2023-08-06T03:56:12;2.20;;;1.53;;
17207;SDS011;8720;48.488;9.202;2023-08-06T03:58:39;2.00;;;1.67;;
17207;SDS011;8720;48.488;9.202;2023-08-06T04:01:07;2.60;;;1.80;;
17207;SDS011;8720;48.488;9.202;2023-08-06T04:03:41;4.07;;;2.00;;
17207;SDS011;8720;48.488;9.202;2023-08-06T04:06:08;2.57;;;1.53;;
17207;SDS011;8720;48.488;9.202;2023-08-06T04:08:37;2.83;;;1.80;;
17207;SDS011;8720;48.488;9.202;2023-08-06T04:11:04;1.63;;;1.27;;
17207;SDS011;8720;48.488;9.202;2023-08-06T04:13:32;2.97;;;1.60;;
17207;SDS011;8720;48.488;9.202;2023-08-06T04:16:00;2.90;;;1.50;;
17207;SDS011;8720;48.488;9.202;2023-08-06T04:18:29;4.43;;;1.87;;
17207;SDS011;8720;48.488;9.202;2023-08-06T04:20:56;2.67;;;1.80;;
17207;SDS011;8720;48.488;9.202;2023-08-06T04:23:24;2.77;;;1.87;;
17207;SDS011;8720;48.488;9.202;2023-08-06T04:25:57;2.93;;;1.47;;
17207;SDS011;8720;48.488;9.202;2023-08-06T04:28:30;2.17;;;1.70;;
17207;SDS011;8720;48.488;9.202;2023-08-06T04:30:58;5.23;;;2.47;;
17207;SDS011;8720;48.488;9.202;2023-08-06T04:33:30;2.93;;;1.70;;
17207;SDS011;8720;48.488;9.202;2023-08-06T04:36:00;2.10;;;1.70;;
17207;SDS011;8720;48.488;9.202;2023-08-06T04:38:28;2.93;;;1.60;;
17207;SDS011;8720;48.488;9.202;2023-08-06T04:40:58;2.33;;;1.20;;
17207;SDS011;8720;48.488;9.202;2023-08-06T04:43:25;2.67;;;2.00;;
17207;SDS011;8720;48.488;9.202;2023-08-06T04:45:53;3.43;;;1.47;;
17207;SDS011;8720;48.488;9.202;2023-08-06T04:48:21;2.27;;;1.50;;
17207;SDS011;8720;48.488;9.202;2023-08-06T04:50:48;1.60;;;1.40;;
17207;SDS011;8720;48.488;9.202;2023-08-06T04:53:16;2.00;;;1.53;;
17207;SDS011;8720;48.488;9.202;2023-08-06T04:55:44;2.00;;;1.43;;
17207;SDS011;8720;48.488;9.202;2023-08-06T04:58:13;1.70;;;1.20;;
17207;SDS011;8720;48.488;9.202;2023-08-06T05:00:40;1.77;;;1.40;;
17207;SDS011;8720;48.488;9.202;2023-08-06T05:03:08;1.50;;;1.10;;
17207;SDS011;8720;48.488;9.202;2023-08-06T05:05:35;4.17;;;1.30;;
17207;SDS011;8720;48.488;9.202;2023-08-06T05:08:02;2.23;;;1.27;;
17207;SDS011;8720;48.488;9.202;2023-08-06T05:10:30;2.23;;;1.10;;
17207;SDS011;8720;48.488;9.202;2023-08-06T05:12:57;2.03;;;1.80;;
17207;SDS011;8720;48.488;9.202;2023-08-06T05:15:26;2.43;;;1.50;;
17207;SDS011;8720;48.488;9.202;2023-08-06T05:17:53;2.00;;;1.40;;
17207;SDS011;8720;48.488;9.202;2023-08-06T05:20:23;1.97;;;1.20;;
17207;SDS011;8720;48.488;9.202;2023-08-06T05:22:50;2.10;;;1.43;;
17207;SDS011;8720;48.488;9.202;2023-08-06T05:25:18;1.63;;;1.37;;
17207;SDS011;8720;48.488;9.202;2023-08-06T05:27:47;1.80;;;1.10;;
17207;SDS011;8720;48.488;9.202;2023-08-06T05:30:14;2.43;;;1.33;;
17207;SDS011;8720;48.488;9.202;2023-08-06T05:32:43;2.27;;;1.67;;
17207;SDS011;8720;48.488;9.202;2023-08-06T05:35:10;2.47;;;1.30;;
17207;SDS011;8720;48.488;9.202;2023-08-06T05:37:37;5.10;;;1.10;;
17207;SDS011;8720;48.488;9.202;2023-08-06T05:40:05;3.30;;;1.50;;
17207;SDS011;8720;48.488;9.202;2023-08-06T05:42:33;2.93;;;1.03;;
17207;SDS011;8720;48.488;9.202;2023-08-06T05:45:00;1.73;;;0.90;;
17207;SDS011;8720;48.488;9.202;2023-08-06T05:47:27;2.20;;;1.03;;
17207;SDS011;8720;48.488;9.202;2023-08-06T05:49:56;2.07;;;1.17;;
17207;SDS011;8720;48.488;9.202;2023-08-06T05:52:23;1.20;;;0.80;;
17207;SDS011;8720;48.488;9.202;2023-08-06T05:54:51;1.70;;;1.03;;
17207;SDS011;8720;48.488;9.202;2023-08-06T05:57:18;1.40;;;0.90;;
17207;SDS011;8720;48.488;9.202;2023-08-06T05:59:45;1.90;;;1.00;;
17207;SDS011;8720;48.488;9.202;2023-08-06T06:02:12;1.90;;;1.00;;
17207;SDS011;8720;48.488;9.202;2023-08-06T06:04:40;1.20;;;0.80;;
17207;SDS011;8720;48.488;9.202;2023-08-06T06:07:09;1.87;;;0.90;;
17207;SDS011;8720;48.488;9.202;2023-08-06T06:09:36;1.20;;;0.83;;
17207;SDS011;8720;48.488;9.202;2023-08-06T06:12:05;1.43;;;0.80;;
17207;SDS011;8720;48.488;9.202;2023-08-06T06:14:33;1.87;;;1.00;;
17207;SDS011;8720;48.488;9.202;2023-08-06T06:17:00;1.60;;;0.80;;
17207;SDS011;8720;48.488;9.202;2023-08-06T06:19:27;1.40;;;0.80;;
17207;SDS011;8720;48.488;9.202;2023-08-06T06:21:54;1.20;;;0.70;;
17207;SDS011;8720;48.488;9.202;2023-08-06T06:24:24;1.77;;;1.00;;
17207;SDS011;8720;48.488;9.202;2023-08-06T06:26:51;1.90;;;1.00;;
17207;SDS011;8720;48.488;9.202;2023-08-06T06:29:19;1.73;;;0.70;;
17207;SDS011;8720;48.488;9.202;2023-08-06T06:31:46;1.30;;;0.80;;
17207;SDS011;8720;48.488;9.202;2023-08-06T06:34:13;2.13;;;0.97;;
17207;SDS011;8720;48.488;9.202;2023-08-06T06:36:40;1.50;;;0.80;;
17207;SDS011;8720;48.488;9.202;2023-08-06T06:39:08;2.87;;;0.80;;
17207;SDS011;8720;48.488;9.202;2023-08-06T06:41:36;1.20;;;0.80;;
17207;SDS011;8720;48.488;9.202;2023-08-06T06:44:11;1.30;;;0.70;;
17207;SDS011;8720;48.488;9.202;2023-08-06T06:46:40;1.90;;;0.80;;
17207;SDS011;8720;48.488;9.202;2023-08-06T06:49:07;1.20;;;0.70;;
17207;SDS011;8720;48.488;9.202;2023-08-06T06:51:34;1.20;;;0.80;;
17207;SDS011;8720;48.488;9.202;2023-08-06T06:54:01;1.37;;;0.70;;
17207;SDS011;8720;48.488;9.202;2023-08-06T06:56:29;1.20;;;0.70;;
17207;SDS011;8720;48.488;9.202;2023-08-06T06:58:57;1.80;;;0.80;;
17207;SDS011;8720;48.488;9.202;2023-08-06T07:01:25;1.63;;;0.80;;
17207;SDS011;8720;48.488;9.202;2023-08-06T07:03:52;1.83;;;0.70;;
17207;SDS011;8720;48.488;9.202;2023-08-06T07:06:19;1.10;;;0.60;;
17207;SDS011;8720;48.488;9.202;2023-08-06T07:08:47;1.20;;;0.80;;
17207;SDS011;8720;48.488;9.202;2023-08-06T07:11:14;1.20;;;0.90;;
17207;SDS011;8720;48.488;9.202;2023-08-06T07:13:41;2.37;;;0.73;;
17207;SDS011;8720;48.488;9.202;2023-08-06T07:16:10;1.73;;;0.70;;
17207;SDS011;8720;48.488;9.202;2023-08-06T07:18:37;1.00;;;0.60;;
17207;SDS011;8720;48.488;9.202;2023-08-06T07:21:04;1.40;;;0.70;;
17207;SDS011;8720;48.488;9.202;2023-08-06T07:23:32;1.37;;;0.60;;
17207;SDS011;8720;48.488;9.202;2023-08-06T07:25:59;1.97;;;0.70;;
17207;SDS011;8720;48.488;9.202;2023-08-06T07:28:26;1.20;;;0.70;;
17207;SDS011;8720;48.488;9.202;2023-08-06T07:30:53;2.43;;;0.70;;
17207;SDS011;8720;48.488;9.202;2023-08-06T07:33:22;1.97;;;0.60;;
17207;SDS011;8720;48.488;9.202;2023-08-06T07:35:49;1.30;;;0.80;;
17207;SDS011;8720;48.488;9.202;2023-08-06T07:38:16;4.50;;;0.63;;
17207;SDS011;8720;48.488;9.202;2023-08-06T07:40:44;1.30;;;0.70;;
17207;SDS011;8720;48.488;9.202;2023-08-06T07:43:11;1.80;;;0.60;;
17207;SDS011;8720;48.488;9.202;2023-08-06T07:45:39;0.90;;;0.50;;
17207;SDS011;8720;48.488;9.202;2023-08-06T07:48:06;1.67;;;0.70;;
17207;SDS011;8720;48.488;9.202;2023-08-06T07:50:34;1.00;;;0.60;;
17207;SDS011;8720;48.488;9.202;2023-08-06T07:53:02;1.63;;;0.70;;
17207;SDS011;8720;48.488;9.202;2023-08-06T07:55:29;0.90;;;0.50;;
17207;SDS011;8720;48.488;9.202;2023-08-06T07:57:57;1.60;;;0.80;;
17207;SDS011;8720;48.488;9.202;2023-08-06T08:00:24;1.53;;;0.60;;
17207;SDS011;8720;48.488;9.202;2023-08-06T08:02:51;2.07;;;0.70;;
17207;SDS011;8720;48.488;9.202;2023-08-06T08:05:19;1.00;;;0.60;;
17207;SDS011;8720;48.488;9.202;2023-08-06T08:07:50;1.00;;;0.63;;
17207;SDS011;8720;48.488;9.202;2023-08-06T08:10:18;1.00;;;0.60;;
17207;SDS011;8720;48.488;9.202;2023-08-06T08:12:45;2.70;;;0.90;;
17207;SDS011;8720;48.488;9.202;2023-08-06T08:15:12;1.00;;;0.70;;
17207;SDS011;8720;48.488;9.202;2023-08-06T08:17:40;1.00;;;0.60;;
17207;SDS011;8720;48.488;9.202;2023-08-06T08:20:07;1.63;;;0.60;;
17207;SDS011;8720;48.488;9.202;2023-08-06T08:22:35;0.90;;;0.50;;
17207;SDS011;8720;48.488;9.202;2023-08-06T08:25:04;1.33;;;0.60;;
17207;SDS011;8720;48.488;9.202;2023-08-06T08:27:32;1.10;;;0.60;;
17207;SDS011;8720;48.488;9.202;2023-08-06T08:29:59;1.20;;;0.70;;
17207;SDS011;8720;48.488;9.202;2023-08-06T08:32:26;0.93;;;0.60;;
17207;SDS011;8720;48.488;9.202;2023-08-06T08:34:54;1.30;;;0.60;;
17207;SDS011;8720;48.488;9.202;2023-08-06T08:37:21;1.70;;;0.70;;
17207;SDS011;8720;48.488;9.202;2023-08-06T08:39:49;0.90;;;0.50;;
17207;SDS011;8720;48.488;9.202;2023-08-06T08:42:18;1.00;;;0.50;;
17207;SDS011;8720;48.488;9.202;2023-08-06T08:44:47;1.20;;;0.50;;
17207;SDS011;8720;48.488;9.202;2023-08-06T08:47:14;1.13;;;0.60;;
17207;SDS011;8720;48.488;9.202;2023-08-06T08:49:42;0.97;;;0.53;;
17207;SDS011;8720;48.488;9.202;2023-08-06T08:52:12;0.90;;;0.50;;
17207;SDS011;8720;48.488;9.202;2023-08-06T08:54:41;1.10;;;0.60;;
17207;SDS011;8720;48.488;9.202;2023-08-06T08:57:10;1.10;;;0.60;;
17207;SDS011;8720;48.488;9.202;2023-08-06T08:59:39;0.97;;;0.53;;
17207;SDS011;8720;48.488;9.202;2023-08-06T09:02:09;2.50;;;0.63;;
17207;SDS011;8720;48.488;9.202;2023-08-06T09:04:41;1.00;;;0.60;;
17207;SDS011;8720;48.488;9.202;2023-08-06T09:07:10;1.00;;;0.60;;
17207;SDS011;8720;48.488;9.202;2023-08-06T09:09:44;1.23;;;0.50;;
17207;SDS011;8720;48.488;9.202;2023-08-06T09:12:16;1.20;;;0.60;;
17207;SDS011;8720;48.488;9.202;2023-08-06T09:14:45;1.00;;;0.60;;
17207;SDS011;8720;48.488;9.202;2023-08-06T09:17:12;1.10;;;0.50;;
17207;SDS011;8720;48.488;9.202;2023-08-06T09:19:44;1.30;;;0.50;;
17207;SDS011;8720;48.488;9.202;2023-08-06T09:22:15;1.97;;;0.70;;
17207;SDS011;8720;48.488;9.202;2023-08-06T09:24:42;1.00;;;0.60;;
17207;SDS011;8720;48.488;9.202;2023-08-06T09:27:10;1.03;;;0.60;;
17207;SDS011;8720;48.488;9.202;2023-08-06T09:29:42;1.00;;;0.50;;
17207;SDS011;8720;48.488;9.202;2023-08-06T09:32:11;1.13;;;0.60;;
17207;SDS011;8720;48.488;9.202;2023-08-06T09:34:39;1.10;;;0.60;;
17207;SDS011;8720;48.488;9.202;2023-08-06T09:37:08;1.10;;;0.60;;
17207;SDS011;8720;48.488;9.202;2023-08-06T09:39:37;1.00;;;0.50;;
17207;SDS011;8720;48.488;9.202;2023-08-06T09:42:06;1.10;;;0.70;;
17207;SDS011;8720;48.488;9.202;2023-08-06T09:44:34;1.00;;;0.60;;
17207;SDS011;8720;48.488;9.202;2023-08-06T09:47:03;1.00;;;0.60;;
17207;SDS011;8720;48.488;9.202;2023-08-06T09:49:40;1.03;;;0.50;;
17207;SDS011;8720;48.488;9.202;2023-08-06T09:52:10;1.10;;;0.60;;
17207;SDS011;8720;48.488;9.202;2023-08-06T09:54:39;1.00;;;0.60;;
17207;SDS011;8720;48.488;9.202;2023-08-06T09:57:06;1.07;;;0.60;;
17207;SDS011;8720;48.488;9.202;2023-08-06T09:59:38;1.00;;;0.60;;
17207;SDS011;8720;48.488;9.202;2023-08-06T10:02:10;1.00;;;0.60;;
17207;SDS011;8720;48.488;9.202;2023-08-06T10:04:40;1.00;;;0.53;;
17207;SDS011;8720;48.488;9.202;2023-08-06T10:07:11;1.10;;;0.60;;
17207;SDS011;8720;48.488;9.202;2023-08-06T10:09:39;1.00;;;0.50;;
17207;SDS011;8720;48.488;9.202;2023-08-06T10:12:06;1.43;;;0.70;;
17207;SDS011;8720;48.488;9.202;2023-08-06T10:14:35;1.10;;;0.60;;
17207;SDS011;8720;48.488;9.202;2023-08-06T10:17:05;1.00;;;0.50;;
17207;SDS011;8720;48.488;9.202;2023-08-06T10:19:34;1.00;;;0.50;;
17207;SDS011;8720;48.488;9.202;2023-08-06T10:22:08;0.93;;;0.50;;
17207;SDS011;8720;48.488;9.202;2023-08-06T10:24:45;1.10;;;0.50;;
17207;SDS011;8720;48.488;9.202;2023-08-06T10:27:20;1.00;;;0.60;;
17207;SDS011;8720;48.488;9.202;2023-08-06T10:29:56;1.00;;;0.60;;
17207;SDS011;8720;48.488;9.202;2023-08-06T10:32:50;1.20;;;0.80;;
17207;SDS011;8720;48.488;9.202;2023-08-06T10:35:34;1.07;;;0.60;;
17207;SDS011;8720;48.488;9.202;2023-08-06T10:38:03;1.17;;;0.60;;
17207;SDS011;8720;48.488;9.202;2023-08-06T10:40:33;1.00;;;0.50;;
17207;SDS011;8720;48.488;9.202;2023-08-06T10:43:00;1.00;;;0.50;;
17207;SDS011;8720;48.488;9.202;2023-08-06T10:45:34;1.00;;;0.53;;
17207;SDS011;8720;48.488;9.202;2023-08-06T10:48:02;0.90;;;0.60;;
17207;SDS011;8720;48.488;9.202;2023-08-06T10:50:30;0.90;;;0.50;;
17207;SDS011;8720;48.488;9.202;2023-08-06T10:53:03;1.00;;;0.60;;
17207;SDS011;8720;48.488;9.202;2023-08-06T10:55:32;0.90;;;0.50;;
17207;SDS011;8720;48.488;9.202;2023-08-06T10:58:00;1.00;;;0.50;;
17207;SDS011;8720;48.488;9.202;2023-08-06T11:00:29;1.00;;;0.50;;
17207;SDS011;8720;48.488;9.202;2023-08-06T11:02:56;1.30;;;0.70;;
17207;SDS011;8720;48.488;9.202;2023-08-06T11:05:23;1.00;;;0.60;;
17207;SDS011;8720;48.488;9.202;2023-08-06T11:07:52;1.00;;;0.70;;
17207;SDS011;8720;48.488;9.202;2023-08-06T11:10:20;0.90;;;0.50;;
17207;SDS011;8720;48.488;9.202;2023-08-06T11:12:47;0.90;;;0.50;;
17207;SDS011;8720;48.488;9.202;2023-08-06T11:15:14;0.90;;;0.50;;
17207;SDS011;8720;48.488;9.202;2023-08-06T11:17:41;1.00;;;0.60;;
17207;SDS011;8720;48.488;9.202;2023-08-06T11:20:09;2.50;;;0.60;;
17207;SDS011;8720;48.488;9.202;2023-08-06T11:22:37;1.23;;;0.67;;
17207;SDS011;8720;48.488;9.202;2023-08-06T11:25:07;1.00;;;0.60;;
17207;SDS011;8720;48.488;9.202;2023-08-06T11:27:34;1.00;;;0.60;;
17207;SDS011;8720;48.488;9.202;2023-08-06T11:30:02;1.77;;;1.10;;
17207;SDS011;8720;48.488;9.202;2023-08-06T11:32:30;1.17;;;0.60;;
17207;SDS011;8720;48.488;9.202;2023-08-06T11:34:58;1.10;;;0.60;;
17207;SDS011;8720;48.488;9.202;2023-08-06T11:37:36;2.90;;;0.60;;
17207;SDS011;8720;48.488;9.202;2023-08-06T11:40:11;1.07;;;0.60;;
17207;SDS011;8720;48.488;9.202;2023-08-06T11:42:41;1.00;;;0.60;;
17207;SDS011;8720;48.488;9.202;2023-08-06T11:45:08;1.00;;;0.60;;
17207;SDS011;8720;48.488;9.202;2023-08-06T11:47:38;2.70;;;0.93;;
17207;SDS011;8720;48.488;9.202;2023-08-06T11:50:06;1.10;;;0.60;;
17207;SDS011;8720;48.488;9.202;2023-08-06T11:52:34;1.00;;;0.50;;
17207;SDS011;8720;48.488;9.202;2023-08-06T11:55:08;1.03;;;0.67;;
17207;SDS011;8720;48.488;9.202;2023-08-06T11:57:37;1.13;;;0.50;;
17207;SDS011;8720;48.488;9.202;2023-08-06T12:00:06;1.00;;;0.60;;
17207;SDS011;8720;48.488;9.202;2023-08-06T12:02:38;1.00;;;0.70;;
17207;SDS011;8720;48.488;9.202;2023-08-06T12:05:10;1.10;;;0.67;;
17207;SDS011;8720;48.488;9.202;2023-08-06T12:07:41;0.90;;;0.50;;
17207;SDS011;8720;48.488;9.202;2023-08-06T12:10:13;1.00;;;0.60;;
17207;SDS011;8720;48.488;9.202;2023-08-06T12:12:41;1.20;;;0.60;;
17207;SDS011;8720;48.488;9.202;2023-08-06T12:15:09;1.67;;;0.70;;
17207;SDS011;8720;48.488;9.202;2023-08-06T12:17:37;1.10;;;0.70;;
17207;SDS011;8720;48.488;9.202;2023-08-06T12:20:06;1.00;;;0.70;;
17207;SDS011;8720;48.488;9.202;2023-08-06T12:22:35;1.17;;;0.63;;
17207;SDS011;8720;48.488;9.202;2023-08-06T12:25:05;1.10;;;0.70;;
17207;SDS011;8720;48.488;9.202;2023-08-06T12:27:37;1.93;;;1.07;;
17207;SDS011;8720;48.488;9.202;2023-08-06T12:30:06;1.07;;;0.70;;
17207;SDS011;8720;48.488;9.202;2023-08-06T12:32:34;1.27;;;0.87;;
17207;SDS011;8720;48.488;9.202;2023-08-06T12:35:02;1.17;;;0.90;;
17207;SDS011;8720;48.488;9.202;2023-08-06T12:37:32;1.37;;;1.20;;
17207;SDS011;8720;48.488;9.202;2023-08-06T12:40:00;1.33;;;0.80;;
17207;SDS011;8720;48.488;9.202;2023-08-06T12:42:27;1.77;;;1.10;;
17207;SDS011;8720;48.488;9.202;2023-08-06T12:44:56;1.47;;;1.20;;
17207;SDS011;8720;48.488;9.202;2023-08-06T12:47:24;1.73;;;1.10;;
17207;SDS011;8720;48.488;9.202;2023-08-06T12:49:51;1.27;;;0.90;;
17207;SDS011;8720;48.488;9.202;2023-08-06T12:52:19;1.13;;;0.90;;
17207;SDS011;8720;48.488;9.202;2023-08-06T12:54:46;1.50;;;1.20;;
17207;SDS011;8720;48.488;9.202;2023-08-06T12:57:13;1.40;;;1.00;;
17207;SDS011;8720;48.488;9.202;2023-08-06T12:59:41;1.70;;;1.10;;
17207;SDS011;8720;48.488;9.202;2023-08-06T13:02:09;3.80;;;1.70;;
17207;SDS011;8720;48.488;9.202;2023-08-06T13:04:36;2.80;;;1.43;;
17207;SDS011;8720;48.488;9.202;2023-08-06T13:07:05;1.40;;;0.97;;
17207;SDS011;8720;48.488;9.202;2023-08-06T13:09:32;1.27;;;1.00;;
17207;SDS011;8720;48.488;9.202;2023-08-06T13:11:59;1.10;;;0.83;;
17207;SDS011;8720;48.488;9.202;2023-08-06T13:14:30;1.93;;;0.93;;
17207;SDS011;8720;48.488;9.202;2023-08-06T13:16:58;1.40;;;1.20;;
17207;SDS011;8720;48.488;9.202;2023-08-06T13:19:27;1.20;;;1.03;;
17207;SDS011;8720;48.488;9.202;2023-08-06T13:22:03;1.37;;;0.90;;
17207;SDS011;8720;48.488;9.202;2023-08-06T13:24:33;2.33;;;1.00;;
17207;SDS011;8720;48.488;9.202;2023-08-06T13:27:01;1.10;;;0.80;;
17207;SDS011;8720;48.488;9.202;2023-08-06T13:29:28;2.60;;;0.80;;
17207;SDS011;8720;48.488;9.202;2023-08-06T13:31:56;1.30;;;1.10;;
17207;SDS011;8720;48.488;9.202;2023-08-06T13:34:23;1.30;;;0.90;;
17207;SDS011;8720;48.488;9.202;2023-08-06T13:36:52;1.20;;;0.80;;
17207;SDS011;8720;48.488;9.202;2023-08-06T13:39:19;1.20;;;0.80;;
17207;SDS011;8720;48.488;9.202;2023-08-06T13:41:46;1.00;;;0.70;;
17207;SDS011;8720;48.488;9.202;2023-08-06T13:44:13;1.20;;;0.80;;
17207;SDS011;8720;48.488;9.202;2023-08-06T13:46:41;1.60;;;1.00;;
17207;SDS011;8720;48.488;9.202;2023-08-06T13:49:09;1.10;;;0.80;;
17207;SDS011;8720;48.488;9.202;2023-08-06T13:51:36;1.40;;;0.90;;
17207;SDS011;8720;48.488;9.202;2023-08-06T13:54:05;1.10;;;0.70;;
17207;SDS011;8720;48.488;9.202;2023-08-06T13:56:33;1.07;;;0.70;;
17207;SDS011;8720;48.488;9.202;2023-08-06T13:59:03;1.30;;;0.83;;
17207;SDS011;8720;48.488;9.202;2023-08-06T14:01:30;1.20;;;0.90;;
17207;SDS011;8720;48.488;9.202;2023-08-06T14:03:58;1.20;;;0.90;;
17207;SDS011;8720;48.488;9.202;2023-08-06T14:06:25;1.17;;;0.70;;
17207;SDS011;8720;48.488;9.202;2023-08-06T14:08:52;1.47;;;0.90;;
17207;SDS011;8720;48.488;9.202;2023-08-06T14:11:21;1.10;;;0.80;;
17207;SDS011;8720;48.488;9.202;2023-08-06T14:13:48;1.27;;;0.93;;
17207;SDS011;8720;48.488;9.202;2023-08-06T14:16:16;1.10;;;0.80;;
17207;SDS011;8720;48.488;9.202;2023-08-06T14:18:43;1.30;;;0.70;;
17207;SDS011;8720;48.488;9.202;2023-08-06T14:21:10;1.70;;;0.70;;
17207;SDS011;8720;48.488;9.202;2023-08-06T14:23:37;1.30;;;0.60;;
17207;SDS011;8720;48.488;9.202;2023-08-06T14:26:06;1.00;;;0.70;;
17207;SDS011;8720;48.488;9.202;2023-08-06T14:28:37;1.10;;;0.70;;
17207;SDS011;8720;48.488;9.202;2023-08-06T14:31:04;1.00;;;0.70;;
17207;SDS011;8720;48.488;9.202;2023-08-06T14:33:31;1.10;;;0.70;;
17207;SDS011;8720;48.488;9.202;2023-08-06T14:35:59;1.00;;;0.70;;
17207;SDS011;8720;48.488;9.202;2023-08-06T14:38:27;1.33;;;0.80;;
17207;SDS011;8720;48.488;9.202;2023-08-06T14:40:54;1.37;;;0.77;;
17207;SDS011;8720;48.488;9.202;2023-08-06T14:43:22;1.20;;;0.90;;
17207;SDS011;8720;48.488;9.202;2023-08-06T14:45:51;1.20;;;0.77;;
17207;SDS011;8720;48.488;9.202;2023-08-06T14:48:18;1.20;;;0.80;;
17207;SDS011;8720;48.488;9.202;2023-08-06T14:50:45;1.30;;;1.00;;
17207;SDS011;8720;48.488;9.202;2023-08-06T14:53:13;1.23;;;0.80;;
17207;SDS011;8720;48.488;9.202;2023-08-06T14:55:40;1.00;;;0.70;;
17207;SDS011;8720;48.488;9.202;2023-08-06T14:58:08;1.40;;;0.70;;
17207;SDS011;8720;48.488;9.202;2023-08-06T15:00:35;1.20;;;0.70;;
17207;SDS011;8720;48.488;9.202;2023-08-06T15:03:04;1.10;;;0.60;;
17207;SDS011;8720;48.488;9.202;2023-08-06T15:05:31;1.00;;;0.70;;
17207;SDS011;8720;48.488;9.202;2023-08-06T15:07:59;1.20;;;0.80;;
17207;SDS011;8720;48.488;9.202;2023-08-06T15:10:26;1.30;;;0.70;;
17207;SDS011;8720;48.488;9.202;2023-08-06T15:12:54;1.30;;;0.70;;